createdAt,value
2019-02-23T00:00:12.537Z,6.20
2019-02-23T00:02:44.845Z,6.20
2019-02-23T00:05:15.953Z,6.10
2019-02-23T00:07:46.646Z,6.00
2019-02-23T00:10:16.911Z,5.80
2019-02-23T00:12:47.338Z,5.80
2019-02-23T00:15:18.074Z,6.10
2019-02-23T00:17:49.192Z,6.10
2019-02-23T00:20:19.748Z,5.90
2019-02-23T00:22:50.280Z,6.00
2019-02-23T00:25:20.819Z,6.00
2019-02-23T00:27:51.344Z,6.00
2019-02-23T00:30:21.666Z,6.00
2019-02-23T00:32:52.057Z,6.10
2019-02-23T00:35:22.418Z,6.10
2019-02-23T00:37:53.121Z,5.90
2019-02-23T00:40:23.838Z,5.90
2019-02-23T00:42:54.178Z,5.90
2019-02-23T00:45:24.948Z,5.80
2019-02-23T00:47:55.271Z,5.80
2019-02-23T00:50:25.856Z,5.70
2019-02-23T00:52:56.482Z,5.60
2019-02-23T00:55:26.861Z,5.70
2019-02-23T00:57:57.418Z,5.80
2019-02-23T01:00:27.718Z,5.60
2019-02-23T01:02:58.556Z,5.60
2019-02-23T01:05:29.205Z,5.50
2019-02-23T01:08:01.379Z,5.60
2019-02-23T01:10:31.882Z,5.70
2019-02-23T01:13:05.420Z,5.80
2019-02-23T01:15:36.124Z,5.60
2019-02-23T01:18:06.791Z,5.60
2019-02-23T01:20:37.020Z,5.40
2019-02-23T01:23:10.785Z,5.30
2019-02-23T01:25:41.437Z,5.20
2019-02-23T01:28:12.461Z,5.40
2019-02-23T01:30:42.475Z,5.30
2019-02-23T01:33:12.773Z,5.30
2019-02-23T01:35:43.451Z,5.30
2019-02-23T01:38:13.965Z,5.30
2019-02-23T01:40:44.389Z,5.30
2019-02-23T01:43:14.730Z,5.30
2019-02-23T01:45:45.456Z,5.40
2019-02-23T01:48:18.848Z,5.40
2019-02-23T01:50:49.788Z,5.20
2019-02-23T01:53:20.215Z,5.40
2019-02-23T01:55:51.980Z,5.30
2019-02-23T01:58:22.281Z,5.30
2019-02-23T02:00:52.726Z,5.30
2019-02-23T02:03:23.458Z,4.90
2019-02-23T02:05:53.962Z,4.70
2019-02-23T02:08:25.341Z,4.80
2019-02-23T02:10:56.690Z,4.80
2019-02-23T02:13:28.552Z,4.70
2019-02-23T02:15:59.273Z,4.80
2019-02-23T02:18:29.599Z,4.70
2019-02-23T02:21:02.805Z,4.70
2019-02-23T02:23:33.337Z,4.60
2019-02-23T02:26:03.968Z,4.50
2019-02-23T02:28:34.849Z,4.60
2019-02-23T02:31:05.028Z,4.70
2019-02-23T02:33:42.844Z,4.60
2019-02-23T02:36:14.484Z,4.60
2019-02-23T02:38:45.117Z,4.70
2019-02-23T02:41:16.371Z,4.60
2019-02-23T02:43:47.303Z,4.60
2019-02-23T02:46:20.397Z,4.60
2019-02-23T02:48:53.483Z,4.60
2019-02-23T02:51:24.326Z,4.60
2019-02-23T02:53:55.055Z,4.60
2019-02-23T02:56:26.366Z,4.60
2019-02-23T02:59:00.934Z,4.80
2019-02-23T03:01:31.541Z,4.80
2019-02-23T03:04:05.269Z,4.80
2019-02-23T03:06:39.666Z,4.70
2019-02-23T03:09:13.009Z,4.70
2019-02-23T03:11:43.616Z,4.70
2019-02-23T03:14:13.942Z,4.60
2019-02-23T03:16:44.576Z,4.50
2019-02-23T03:19:18.373Z,4.50
2019-02-23T03:21:48.602Z,4.40
2019-02-23T03:24:19.439Z,4.30
2019-02-23T03:26:49.572Z,4.40
2019-02-23T03:29:21.585Z,4.50
2019-02-23T03:31:52.157Z,4.50
2019-02-23T03:34:22.685Z,4.40
2019-02-23T03:36:52.751Z,4.40
2019-02-23T03:39:24.671Z,4.50
2019-02-23T03:41:55.409Z,4.50
2019-02-23T03:44:26.347Z,4.30
2019-02-23T03:46:56.634Z,4.20
2019-02-23T03:49:27.669Z,4.20
2019-02-23T03:51:57.582Z,4.30
2019-02-23T03:54:28.258Z,4.40
2019-02-23T03:57:01.262Z,4.40
2019-02-23T03:59:31.995Z,4.40
2019-02-23T04:02:02.306Z,4.30
2019-02-23T04:04:32.714Z,4.30
2019-02-23T04:07:05.417Z,4.30
2019-02-23T04:09:35.988Z,4.30
2019-02-23T04:12:06.168Z,4.30
2019-02-23T04:14:37.049Z,4.40
2019-02-23T04:17:09.172Z,4.30
2019-02-23T04:19:39.398Z,4.40
2019-02-23T04:22:09.851Z,4.40
2019-02-23T04:24:39.943Z,4.40
2019-02-23T04:27:10.807Z,4.40
2019-02-23T04:29:41.412Z,4.30
2019-02-23T04:32:11.841Z,4.10
2019-02-23T04:34:42.578Z,4.30
2019-02-23T04:37:14.044Z,4.30
2019-02-23T04:39:44.662Z,4.20
2019-02-23T04:42:15.499Z,4.10
2019-02-23T04:44:51.790Z,4.10
2019-02-23T04:47:22.707Z,4.20
2019-02-23T04:49:56.508Z,4.10
2019-02-23T04:52:29.647Z,4.00
2019-02-23T04:55:00.208Z,4.00
2019-02-23T04:57:31.131Z,4.10
2019-02-23T05:00:03.344Z,3.90
2019-02-23T05:02:33.535Z,3.90
2019-02-23T05:05:05.801Z,4.10
2019-02-23T05:07:35.748Z,4.10
2019-02-23T05:10:06.084Z,3.90
2019-02-23T05:12:36.167Z,3.80
2019-02-23T05:15:06.651Z,3.70
2019-02-23T05:17:37.152Z,3.70
2019-02-23T05:20:07.990Z,3.70
2019-02-23T05:22:38.472Z,3.50
2019-02-23T05:25:08.846Z,3.50
2019-02-23T05:27:39.167Z,3.50
2019-02-23T05:30:10.479Z,3.50
2019-02-23T05:32:40.538Z,3.40
2019-02-23T05:35:12.192Z,3.60
2019-02-23T05:37:42.050Z,3.50
2019-02-23T05:40:12.481Z,3.40
2019-02-23T05:42:42.965Z,3.40
2019-02-23T05:45:13.483Z,3.50
2019-02-23T05:47:43.760Z,3.60
2019-02-23T05:50:13.737Z,3.60
2019-02-23T05:52:44.269Z,3.70
2019-02-23T05:55:14.682Z,3.60
2019-02-23T05:57:44.703Z,3.50
2019-02-23T06:00:15.333Z,3.30
2019-02-23T06:02:45.518Z,3.10
2019-02-23T06:05:16.197Z,3.10
2019-02-23T06:07:47.037Z,3.10
2019-02-23T06:10:17.664Z,3.10
2019-02-23T06:12:48.001Z,3.10
2019-02-23T06:15:18.947Z,3.30
2019-02-23T06:17:52.647Z,3.20
2019-02-23T06:20:23.483Z,3.20
2019-02-23T06:22:53.922Z,3.30
2019-02-23T06:25:24.133Z,3.30
2019-02-23T06:27:54.246Z,3.50
2019-02-23T06:30:24.039Z,3.40
2019-02-23T06:32:53.664Z,3.40
2019-02-23T06:35:23.568Z,3.40
2019-02-23T06:37:53.487Z,3.40
2019-02-23T06:40:23.448Z,3.40
2019-02-23T06:42:53.422Z,3.10
2019-02-23T06:45:22.926Z,3.10
2019-02-23T06:47:52.540Z,2.90
2019-02-23T06:50:22.240Z,3.10
2019-02-23T06:52:52.154Z,2.90
2019-02-23T06:55:21.964Z,2.90
2019-02-23T06:57:51.654Z,2.90
2019-02-23T07:00:33.427Z,3.10
2019-02-23T07:03:03.404Z,2.90
2019-02-23T07:05:32.926Z,2.80
2019-02-23T07:08:02.923Z,2.90
2019-02-23T07:10:32.602Z,2.90
2019-02-23T07:13:02.725Z,2.80
2019-02-23T07:15:32.569Z,2.90
2019-02-23T07:18:02.144Z,2.90
2019-02-23T07:20:31.949Z,2.90
2019-02-23T07:23:01.603Z,3.00
2019-02-23T07:25:31.155Z,3.00
2019-02-23T07:28:00.884Z,3.00
2019-02-23T07:30:30.637Z,3.00
2019-02-23T07:33:00.165Z,3.10
2019-02-23T07:35:29.807Z,3.00
2019-02-23T07:37:59.566Z,3.00
2019-02-23T07:40:29.686Z,3.10
2019-02-23T07:42:59.441Z,3.00
2019-02-23T07:45:29.335Z,3.10
2019-02-23T07:47:59.083Z,3.10
2019-02-23T07:50:28.957Z,3.10
2019-02-23T07:52:58.567Z,3.30
2019-02-23T07:55:28.301Z,3.50
2019-02-23T07:57:58.081Z,3.80
2019-02-23T08:00:27.804Z,4.20
2019-02-23T08:02:57.521Z,4.60
2019-02-23T08:05:27.308Z,5.10
2019-02-23T08:07:57.284Z,5.40
2019-02-23T08:10:26.831Z,5.70
2019-02-23T08:12:56.742Z,6.20
2019-02-23T08:15:26.444Z,6.50
2019-02-23T08:17:56.209Z,6.60
2019-02-23T08:20:25.606Z,6.90
2019-02-23T08:22:55.266Z,6.80
2019-02-23T08:25:25.124Z,6.90
2019-02-23T08:27:54.987Z,6.90
2019-02-23T08:30:25.207Z,7.40
2019-02-23T08:32:55.121Z,7.70
2019-02-23T08:35:25.133Z,7.70
2019-02-23T08:37:55.006Z,8.20
2019-02-23T08:40:24.888Z,8.60
2019-02-23T08:42:54.363Z,8.20
2019-02-23T08:45:23.866Z,7.30
2019-02-23T08:47:56.349Z,7.60
2019-02-23T08:50:25.482Z,8.00
2019-02-23T08:52:55.606Z,8.40
2019-02-23T08:55:25.485Z,7.90
2019-02-23T08:57:55.488Z,8.10
2019-02-23T09:00:25.123Z,8.70
2019-02-23T09:02:55.126Z,8.20
2019-02-23T09:05:24.812Z,8.60
2019-02-23T09:07:54.520Z,9.00
2019-02-23T09:10:24.168Z,9.10
2019-02-23T09:12:53.844Z,8.60
2019-02-23T09:15:23.685Z,8.70
2019-02-23T09:17:53.562Z,8.80
2019-02-23T09:20:29.148Z,8.70
2019-02-23T09:23:00.132Z,9.10
2019-02-23T09:25:26.080Z,8.80
2019-02-23T09:27:56.086Z,9.10
2019-02-23T09:30:25.964Z,9.50
2019-02-23T09:32:55.598Z,9.90
2019-02-23T09:35:25.818Z,9.60
2019-02-23T09:37:55.487Z,9.80
2019-02-23T09:40:25.360Z,9.80
2019-02-23T09:42:55.042Z,9.60
2019-02-23T09:45:24.881Z,10.00
2019-02-23T09:47:54.457Z,10.80
2019-02-23T09:50:24.100Z,10.90
2019-02-23T09:52:53.803Z,11.40
2019-02-23T09:55:23.680Z,12.20
2019-02-23T09:57:53.442Z,11.70
2019-02-23T10:00:22.999Z,11.20
2019-02-23T10:02:52.810Z,10.80
2019-02-23T10:05:22.519Z,11.00
2019-02-23T10:07:52.723Z,10.80
2019-02-23T10:10:22.451Z,10.20
2019-02-23T10:12:52.243Z,11.00
2019-02-23T10:15:22.003Z,11.40
2019-02-23T10:17:51.572Z,10.70
2019-02-23T10:20:21.587Z,10.00
2019-02-23T10:22:51.518Z,10.60
2019-02-23T10:25:21.160Z,11.40
2019-02-23T10:27:51.040Z,11.60
2019-02-23T10:30:20.626Z,11.00
2019-02-23T10:32:50.321Z,10.90
2019-02-23T10:35:20.078Z,11.10
2019-02-23T10:37:49.479Z,11.40
2019-02-23T10:40:18.946Z,11.10
2019-02-23T10:42:49.068Z,11.30
2019-02-23T10:45:19.000Z,10.80
2019-02-23T10:47:50.190Z,11.60
2019-02-23T10:50:20.135Z,12.10
2019-02-23T10:52:50.081Z,12.10
2019-02-23T10:55:19.718Z,12.10
2019-02-23T10:57:49.612Z,12.00
2019-02-23T11:00:22.902Z,12.30
2019-02-23T11:02:52.719Z,12.40
2019-02-23T11:05:22.598Z,12.00
2019-02-23T11:07:52.484Z,12.00
2019-02-23T11:10:22.721Z,11.60
2019-02-23T11:12:52.600Z,11.30
2019-02-23T11:15:23.059Z,11.40
2019-02-23T11:17:52.718Z,11.90
2019-02-23T11:20:22.985Z,11.70
2019-02-23T11:22:52.841Z,12.30
2019-02-23T11:25:22.301Z,12.10
2019-02-23T11:27:52.216Z,12.30
2019-02-23T11:30:21.845Z,11.60
2019-02-23T11:32:51.336Z,11.30
2019-02-23T11:35:21.159Z,11.90
2019-02-23T11:37:50.953Z,11.60
2019-02-23T11:40:23.335Z,12.50
2019-02-23T11:42:52.241Z,12.50
2019-02-23T11:45:21.810Z,13.10
2019-02-23T11:47:51.833Z,13.10
2019-02-23T11:50:21.757Z,14.00
2019-02-23T11:52:51.521Z,14.20
2019-02-23T11:55:21.565Z,14.40
2019-02-23T11:57:51.070Z,14.40
2019-02-23T12:00:20.982Z,14.30
2019-02-23T12:02:52.725Z,14.50
2019-02-23T12:05:21.757Z,13.90
2019-02-23T12:07:51.242Z,13.60
2019-02-23T12:10:20.917Z,13.90
2019-02-23T12:12:50.689Z,15.40
2019-02-23T12:15:20.665Z,15.70
2019-02-23T12:17:50.448Z,15.90
2019-02-23T12:20:20.249Z,16.10
2019-02-23T12:22:50.078Z,16.40
2019-02-23T12:25:19.503Z,14.80
2019-02-23T12:27:49.360Z,14.70
2019-02-23T12:30:18.998Z,16.10
2019-02-23T12:32:48.628Z,15.00
2019-02-23T12:35:18.346Z,15.20
2019-02-23T12:37:48.353Z,15.20
2019-02-23T12:40:18.399Z,15.70
2019-02-23T12:42:47.870Z,15.30
2019-02-23T12:45:18.042Z,15.60
2019-02-23T12:47:47.797Z,14.20
2019-02-23T12:50:17.511Z,15.10
2019-02-23T12:52:47.078Z,14.90
2019-02-23T12:55:17.231Z,15.10
2019-02-23T12:57:46.751Z,14.90
2019-02-23T13:00:16.599Z,15.20
2019-02-23T13:02:46.595Z,15.30
2019-02-23T13:05:16.477Z,15.90
2019-02-23T13:07:46.115Z,15.20
2019-02-23T13:10:15.797Z,15.10
2019-02-23T13:13:34.713Z,16.00
2019-02-23T13:16:39.274Z,16.10
2019-02-23T13:19:40.359Z,16.00
2019-02-23T13:22:51.705Z,15.30
2019-02-23T13:26:02.577Z,15.20
2019-02-23T13:29:15.452Z,15.70
2019-02-23T13:32:26.065Z,16.20
2019-02-23T13:35:50.455Z,16.80
2019-02-23T13:39:19.045Z,16.10
2019-02-23T13:42:18.393Z,16.00
2019-02-23T13:45:20.074Z,15.90
2019-02-23T13:48:42.752Z,14.10
2019-02-23T13:52:05.301Z,13.40
2019-02-23T13:55:21.037Z,13.90
2019-02-23T13:58:26.638Z,14.20
2019-02-23T14:01:45.039Z,14.90
2019-02-23T14:04:50.994Z,14.40
2019-02-23T14:08:10.837Z,14.60
2019-02-23T14:11:11.195Z,14.40
2019-02-23T14:14:25.238Z,14.60
2019-02-23T14:17:03.278Z,14.80
2019-02-23T14:20:12.950Z,13.50
2019-02-23T14:23:34.234Z,13.40
2019-02-23T14:26:59.989Z,13.40
2019-02-23T14:30:12.705Z,13.30
2019-02-23T14:33:29.518Z,13.30
2019-02-23T14:36:49.234Z,13.10
2019-02-23T14:40:15.464Z,13.40
2019-02-23T14:43:32.161Z,13.60
2019-02-23T14:46:51.666Z,13.30
2019-02-23T14:49:43.129Z,12.80
2019-02-23T14:52:53.906Z,13.00
2019-02-23T14:55:39.857Z,13.10
2019-02-23T14:58:34.796Z,13.30
2019-02-23T15:01:57.754Z,13.30
2019-02-23T15:05:05.193Z,13.20
2019-02-23T15:08:20.550Z,12.80
2019-02-23T15:11:23.832Z,13.30
2019-02-23T15:14:25.711Z,13.40
2019-02-23T15:17:21.758Z,13.30
2019-02-23T15:20:19.472Z,13.60
2019-02-23T15:23:20.432Z,13.50
2019-02-23T15:26:24.424Z,13.60
2019-02-23T15:29:41.208Z,13.20
2019-02-23T15:32:42.635Z,13.30
2019-02-23T15:35:52.585Z,13.00
2019-02-23T15:39:06.872Z,13.20
2019-02-23T15:42:10.007Z,13.40
2019-02-23T15:45:39.049Z,13.20
2019-02-23T15:48:46.386Z,13.00
2019-02-23T15:51:16.190Z,12.80
2019-02-23T15:53:45.993Z,12.60
2019-02-23T15:56:15.807Z,12.50
2019-02-23T15:58:45.753Z,12.90
2019-02-23T16:01:15.222Z,12.70
2019-02-23T16:03:44.933Z,12.60
2019-02-23T16:06:14.673Z,13.00
2019-02-23T16:08:44.551Z,13.20
2019-02-23T16:11:14.192Z,12.80
2019-02-23T16:13:43.710Z,12.60
2019-02-23T16:16:13.230Z,12.60
2019-02-23T16:18:42.679Z,12.20
2019-02-23T16:21:12.389Z,12.00
2019-02-23T16:23:42.030Z,12.00
2019-02-23T16:26:11.915Z,11.70
2019-02-23T16:28:41.723Z,11.80
2019-02-23T16:31:11.217Z,11.70
2019-02-23T16:33:41.028Z,11.40
2019-02-23T16:36:10.836Z,11.40
2019-02-23T16:38:40.442Z,11.30
2019-02-23T16:41:10.592Z,11.30
2019-02-23T16:43:40.833Z,11.50
2019-02-23T16:46:10.594Z,11.30
2019-02-23T16:48:40.114Z,11.30
2019-02-23T16:51:09.996Z,11.20
2019-02-23T16:53:39.752Z,10.90
2019-02-23T16:56:09.423Z,11.00
2019-02-23T16:58:39.335Z,11.10
2019-02-23T17:01:08.945Z,10.80
2019-02-23T17:03:38.673Z,10.80
2019-02-23T17:06:09.199Z,10.40
2019-02-23T17:08:39.523Z,10.40
2019-02-23T17:11:09.631Z,10.30
2019-02-23T17:13:39.872Z,10.20
2019-02-23T17:16:10.152Z,10.50
2019-02-23T17:18:40.924Z,10.20
2019-02-23T17:21:11.145Z,10.30
2019-02-23T17:23:41.679Z,10.30
2019-02-23T17:26:11.920Z,10.40
2019-02-23T17:28:42.042Z,10.20
2019-02-23T17:31:12.277Z,10.30
2019-02-23T17:33:43.005Z,10.20
2019-02-23T17:36:13.243Z,9.90
2019-02-23T17:38:44.816Z,10.10
2019-02-23T17:41:14.918Z,9.90
2019-02-23T17:43:45.155Z,9.80
2019-02-23T17:46:15.433Z,9.70
2019-02-23T17:48:45.869Z,9.60
2019-02-23T17:51:16.327Z,9.70
2019-02-23T17:53:46.601Z,9.70
2019-02-23T17:56:17.328Z,9.70
2019-02-23T17:58:47.442Z,9.50
2019-02-23T18:01:17.801Z,9.40
2019-02-23T18:03:48.032Z,9.40
2019-02-23T18:06:18.320Z,9.40
2019-02-23T18:08:48.751Z,9.40
2019-02-23T18:11:18.835Z,9.40
2019-02-23T18:13:49.231Z,9.10
2019-02-23T18:16:19.120Z,8.90
2019-02-23T18:18:48.879Z,8.80
2019-02-23T18:21:18.873Z,8.80
2019-02-23T18:23:49.360Z,8.80
2019-02-23T18:26:21.155Z,8.80
2019-02-23T18:28:50.808Z,8.60
2019-02-23T18:31:21.043Z,8.40
2019-02-23T18:33:50.986Z,8.40
2019-02-23T18:36:21.419Z,8.60
2019-02-23T18:38:51.564Z,8.50
2019-02-23T18:41:22.088Z,8.30
2019-02-23T18:43:52.000Z,8.10
2019-02-23T18:46:22.275Z,8.00
2019-02-23T18:48:52.610Z,8.00
2019-02-23T18:51:22.871Z,7.80
2019-02-23T18:53:52.978Z,7.60
2019-02-23T18:56:29.385Z,7.50
2019-02-23T18:58:54.994Z,7.50
2019-02-23T19:01:25.228Z,7.40
2019-02-23T19:03:55.535Z,7.30
2019-02-23T19:06:25.840Z,7.10
2019-02-23T19:08:56.115Z,7.10
2019-02-23T19:11:26.572Z,7.20
2019-02-23T19:13:56.813Z,7.10
2019-02-23T19:16:26.853Z,7.10
2019-02-23T19:18:57.279Z,7.00
2019-02-23T19:21:27.278Z,7.00
2019-02-23T19:23:57.395Z,6.90
2019-02-23T19:26:27.364Z,7.00
2019-02-23T19:28:57.634Z,7.20
2019-02-23T19:31:28.162Z,7.10
2019-02-23T19:33:58.592Z,7.00
2019-02-23T19:36:28.346Z,7.00
2019-02-23T19:38:58.723Z,7.00
2019-02-23T19:41:30.307Z,7.00
2019-02-23T19:44:00.746Z,7.00
2019-02-23T19:46:33.419Z,6.80
2019-02-23T19:49:03.756Z,6.70
2019-02-23T19:51:33.752Z,6.50
2019-02-23T19:54:04.397Z,6.40
2019-02-23T19:56:35.026Z,6.40
2019-02-23T19:59:04.956Z,6.40
2019-02-23T20:01:35.436Z,6.30
2019-02-23T20:04:06.033Z,6.40
2019-02-23T20:06:36.428Z,6.60
2019-02-23T20:09:07.125Z,6.60
2019-02-23T20:11:37.809Z,6.40
2019-02-23T20:14:08.100Z,6.40
2019-02-23T20:16:38.696Z,6.20
2019-02-23T20:19:08.836Z,6.20
2019-02-23T20:21:38.797Z,6.10
2019-02-23T20:24:09.038Z,6.00
2019-02-23T20:26:39.753Z,6.10
2019-02-23T20:29:10.230Z,6.20
2019-02-23T20:31:40.473Z,6.30
2019-02-23T20:34:10.838Z,6.20
2019-02-23T20:36:41.560Z,6.00
2019-02-23T20:39:11.937Z,5.90
2019-02-23T20:41:42.516Z,5.70
2019-02-23T20:44:13.778Z,5.70
2019-02-23T20:46:44.194Z,5.60
2019-02-23T20:49:14.561Z,5.50
2019-02-23T20:51:45.351Z,5.50
2019-02-23T20:54:16.195Z,5.50
2019-02-23T20:56:46.621Z,5.50
2019-02-23T20:59:16.983Z,5.40
2019-02-23T21:01:47.498Z,5.50
2019-02-23T21:04:17.947Z,5.20
2019-02-23T21:06:48.402Z,4.90
2019-02-23T21:09:19.194Z,5.00
2019-02-23T21:11:49.395Z,5.10
2019-02-23T21:14:20.127Z,5.10
2019-02-23T21:16:50.694Z,5.10
2019-02-23T21:19:21.158Z,5.20
2019-02-23T21:21:51.549Z,5.10
2019-02-23T21:24:22.130Z,5.10
2019-02-23T21:26:52.781Z,4.90
2019-02-23T21:29:23.416Z,5.00
2019-02-23T21:31:53.322Z,5.10
2019-02-23T21:34:23.779Z,5.10
2019-02-23T21:36:54.047Z,5.20
2019-02-23T21:39:24.575Z,5.50
2019-02-23T21:41:54.902Z,5.70
2019-02-23T21:44:25.551Z,5.80
2019-02-23T21:46:55.792Z,5.80
2019-02-23T21:49:28.588Z,5.80
2019-02-23T21:51:59.556Z,6.10
2019-02-23T21:54:30.425Z,5.90
2019-02-23T21:57:00.394Z,5.80
2019-02-23T21:59:31.075Z,5.80
2019-02-23T22:02:01.478Z,5.80
2019-02-23T22:04:31.717Z,5.80
2019-02-23T22:07:06.464Z,5.90
2019-02-23T22:09:37.113Z,6.00
2019-02-23T22:12:07.651Z,5.90
2019-02-23T22:14:38.075Z,6.00
2019-02-23T22:17:08.310Z,6.10
2019-02-23T22:19:38.932Z,6.10
2019-02-23T22:22:09.666Z,6.10
2019-02-23T22:24:40.729Z,6.20
2019-02-23T22:27:11.133Z,6.10
2019-02-23T22:29:41.817Z,5.90
2019-02-23T22:32:12.992Z,5.90
2019-02-23T22:34:43.645Z,5.90
2019-02-23T22:37:14.690Z,5.80
2019-02-23T22:39:45.522Z,5.80
2019-02-23T22:42:16.606Z,5.70
2019-02-23T22:44:47.522Z,5.70
2019-02-23T22:47:19.781Z,5.60
2019-02-23T22:49:50.206Z,5.50
2019-02-23T22:52:20.701Z,5.50
2019-02-23T22:54:51.484Z,5.50
2019-02-23T22:57:22.405Z,5.60
2019-02-23T22:59:53.763Z,5.60
2019-02-23T23:02:24.392Z,5.70
2019-02-23T23:04:55.234Z,5.60
2019-02-23T23:07:26.064Z,5.30
2019-02-23T23:09:56.501Z,5.30
2019-02-23T23:12:26.988Z,5.30
2019-02-23T23:14:57.140Z,5.00
2019-02-23T23:17:27.408Z,5.00
2019-02-23T23:19:57.878Z,5.00
2019-02-23T23:22:28.412Z,4.90
2019-02-23T23:24:59.058Z,4.70
2019-02-23T23:27:29.455Z,4.60
2019-02-23T23:29:59.914Z,4.70
2019-02-23T23:32:30.340Z,4.50
2019-02-23T23:35:00.677Z,4.50
2019-02-23T23:37:33.245Z,4.50
2019-02-23T23:40:03.130Z,4.50
2019-02-23T23:42:33.838Z,4.40
2019-02-23T23:45:07.293Z,4.20
2019-02-23T23:47:38.091Z,4.20
2019-02-23T23:50:08.410Z,4.00
2019-02-23T23:52:38.678Z,4.30
2019-02-23T23:55:09.322Z,4.30
2019-02-23T23:57:40.214Z,4.20
